sensor_id;sensor_type;location;lat;lon;timestamp;P1;durP1;ratioP1;P2;durP2;ratioP2
52878;SDS011;38747;53.140;6.498;2022-12-16T00:02:14;37.20;;;20.43;;
52878;SDS011;38747;53.140;6.498;2022-12-16T00:04:40;37.67;;;20.60;;
52878;SDS011;38747;53.140;6.498;2022-12-16T00:07:05;35.83;;;20.37;;
52878;SDS011;38747;53.140;6.498;2022-12-16T00:09:31;36.97;;;21.10;;
52878;SDS011;38747;53.140;6.498;2022-12-16T00:11:56;37.60;;;20.15;;
52878;SDS011;38747;53.140;6.498;2022-12-16T00:14:22;36.37;;;20.00;;
52878;SDS011;38747;53.140;6.498;2022-12-16T00:16:48;36.10;;;20.27;;
52878;SDS011;38747;53.140;6.498;2022-12-16T00:19:13;35.03;;;19.87;;
52878;SDS011;38747;53.140;6.498;2022-12-16T00:21:39;36.17;;;19.95;;
52878;SDS011;38747;53.140;6.498;2022-12-16T00:24:05;34.83;;;19.80;;
52878;SDS011;38747;53.140;6.498;2022-12-16T00:26:30;33.97;;;19.40;;
52878;SDS011;38747;53.140;6.498;2022-12-16T00:28:56;33.30;;;19.17;;
52878;SDS011;38747;53.140;6.498;2022-12-16T00:31:22;32.72;;;18.65;;
52878;SDS011;38747;53.140;6.498;2022-12-16T00:33:48;35.27;;;18.83;;
52878;SDS011;38747;53.140;6.498;2022-12-16T00:36:13;35.40;;;19.53;;
52878;SDS011;38747;53.140;6.498;2022-12-16T00:38:39;31.90;;;18.03;;
52878;SDS011;38747;53.140;6.498;2022-12-16T00:41:04;37.23;;;19.17;;
52878;SDS011;38747;53.140;6.498;2022-12-16T00:43:30;32.00;;;18.13;;
52878;SDS011;38747;53.140;6.498;2022-12-16T00:45:56;29.37;;;16.27;;
52878;SDS011;38747;53.140;6.498;2022-12-16T00:48:22;29.42;;;16.55;;
52878;SDS011;38747;53.140;6.498;2022-12-16T00:50:48;29.27;;;15.40;;
52878;SDS011;38747;53.140;6.498;2022-12-16T00:53:15;26.43;;;13.77;;
52878;SDS011;38747;53.140;6.498;2022-12-16T00:55:41;28.80;;;14.18;;
52878;SDS011;38747;53.140;6.498;2022-12-16T00:58:07;25.83;;;13.60;;
52878;SDS011;38747;53.140;6.498;2022-12-16T01:00:33;26.87;;;12.83;;
52878;SDS011;38747;53.140;6.498;2022-12-16T01:02:58;24.10;;;11.98;;
52878;SDS011;38747;53.140;6.498;2022-12-16T01:05:24;25.73;;;13.10;;
52878;SDS011;38747;53.140;6.498;2022-12-16T01:07:53;23.83;;;13.02;;
52878;SDS011;38747;53.140;6.498;2022-12-16T01:10:19;24.63;;;12.07;;
52878;SDS011;38747;53.140;6.498;2022-12-16T01:12:46;23.90;;;10.95;;
52878;SDS011;38747;53.140;6.498;2022-12-16T01:15:12;21.23;;;10.80;;
52878;SDS011;38747;53.140;6.498;2022-12-16T01:17:39;22.27;;;9.73;;
52878;SDS011;38747;53.140;6.498;2022-12-16T01:20:05;17.75;;;9.02;;
52878;SDS011;38747;53.140;6.498;2022-12-16T01:22:31;18.27;;;7.22;;
52878;SDS011;38747;53.140;6.498;2022-12-16T01:24:58;13.83;;;7.60;;
52878;SDS011;38747;53.140;6.498;2022-12-16T01:27:24;15.23;;;6.93;;
52878;SDS011;38747;53.140;6.498;2022-12-16T01:29:50;14.30;;;6.13;;
52878;SDS011;38747;53.140;6.498;2022-12-16T01:32:15;13.70;;;5.80;;
52878;SDS011;38747;53.140;6.498;2022-12-16T01:34:41;16.80;;;5.75;;
52878;SDS011;38747;53.140;6.498;2022-12-16T01:37:11;11.33;;;5.17;;
52878;SDS011;38747;53.140;6.498;2022-12-16T01:39:37;10.48;;;5.00;;
52878;SDS011;38747;53.140;6.498;2022-12-16T01:42:03;11.75;;;4.20;;
52878;SDS011;38747;53.140;6.498;2022-12-16T01:44:35;7.60;;;3.38;;
52878;SDS011;38747;53.140;6.498;2022-12-16T01:47:02;10.50;;;4.30;;
52878;SDS011;38747;53.140;6.498;2022-12-16T01:49:33;8.02;;;3.60;;
52878;SDS011;38747;53.140;6.498;2022-12-16T01:52:03;8.40;;;3.67;;
52878;SDS011;38747;53.140;6.498;2022-12-16T01:54:34;8.52;;;4.30;;
52878;SDS011;38747;53.140;6.498;2022-12-16T01:57:03;8.90;;;4.10;;
52878;SDS011;38747;53.140;6.498;2022-12-16T01:59:33;9.27;;;3.65;;
52878;SDS011;38747;53.140;6.498;2022-12-16T02:02:01;8.35;;;3.78;;
52878;SDS011;38747;53.140;6.498;2022-12-16T02:04:28;8.40;;;3.85;;
52878;SDS011;38747;53.140;6.498;2022-12-16T02:06:54;8.67;;;3.10;;
52878;SDS011;38747;53.140;6.498;2022-12-16T02:09:20;9.02;;;3.90;;
52878;SDS011;38747;53.140;6.498;2022-12-16T02:14:49;6.90;;;3.33;;
52878;SDS011;38747;53.140;6.498;2022-12-16T02:17:30;8.23;;;3.42;;
52878;SDS011;38747;53.140;6.498;2022-12-16T02:31:11;10.65;;;3.70;;
52878;SDS011;38747;53.140;6.498;2022-12-16T02:33:51;9.07;;;3.85;;
52878;SDS011;38747;53.140;6.498;2022-12-16T02:38:59;8.38;;;3.78;;
52878;SDS011;38747;53.140;6.498;2022-12-16T02:44:16;8.70;;;4.15;;
52878;SDS011;38747;53.140;6.498;2022-12-16T02:46:52;9.85;;;4.38;;
52878;SDS011;38747;53.140;6.498;2022-12-16T02:51:45;9.33;;;3.90;;
52878;SDS011;38747;53.140;6.498;2022-12-16T02:54:12;10.45;;;4.20;;
52878;SDS011;38747;53.140;6.498;2022-12-16T02:56:48;9.95;;;4.20;;
52878;SDS011;38747;53.140;6.498;2022-12-16T02:59:33;8.48;;;3.85;;
52878;SDS011;38747;53.140;6.498;2022-12-16T03:05:05;11.05;;;4.10;;
52878;SDS011;38747;53.140;6.498;2022-12-16T03:07:36;8.55;;;4.10;;
52878;SDS011;38747;53.140;6.498;2022-12-16T03:10:04;10.55;;;4.25;;
52878;SDS011;38747;53.140;6.498;2022-12-16T03:12:34;9.32;;;3.88;;
52878;SDS011;38747;53.140;6.498;2022-12-16T03:15:02;8.77;;;3.77;;
52878;SDS011;38747;53.140;6.498;2022-12-16T03:17:28;10.38;;;4.20;;
52878;SDS011;38747;53.140;6.498;2022-12-16T03:20:17;10.20;;;3.70;;
52878;SDS011;38747;53.140;6.498;2022-12-16T03:22:46;9.45;;;4.07;;
52878;SDS011;38747;53.140;6.498;2022-12-16T03:25:14;9.20;;;4.07;;
52878;SDS011;38747;53.140;6.498;2022-12-16T03:30:21;10.10;;;4.47;;
52878;SDS011;38747;53.140;6.498;2022-12-16T03:32:56;9.57;;;4.50;;
52878;SDS011;38747;53.140;6.498;2022-12-16T03:35:42;10.93;;;4.43;;
52878;SDS011;38747;53.140;6.498;2022-12-16T03:38:32;13.27;;;4.23;;
52878;SDS011;38747;53.140;6.498;2022-12-16T03:40:59;9.85;;;3.85;;
52878;SDS011;38747;53.140;6.498;2022-12-16T03:43:27;8.65;;;4.20;;
52878;SDS011;38747;53.140;6.498;2022-12-16T03:45:53;9.97;;;4.60;;
52878;SDS011;38747;53.140;6.498;2022-12-16T03:48:25;10.80;;;4.53;;
52878;SDS011;38747;53.140;6.498;2022-12-16T03:50:51;13.85;;;4.95;;
52878;SDS011;38747;53.140;6.498;2022-12-16T03:53:16;13.10;;;5.40;;
52878;SDS011;38747;53.140;6.498;2022-12-16T03:55:42;12.98;;;6.45;;
52878;SDS011;38747;53.140;6.498;2022-12-16T03:58:08;14.05;;;6.72;;
52878;SDS011;38747;53.140;6.498;2022-12-16T04:00:34;13.98;;;6.75;;
52878;SDS011;38747;53.140;6.498;2022-12-16T04:03:00;15.47;;;7.77;;
52878;SDS011;38747;53.140;6.498;2022-12-16T04:05:26;19.10;;;10.82;;
52878;SDS011;38747;53.140;6.498;2022-12-16T04:07:51;22.90;;;11.30;;
52878;SDS011;38747;53.140;6.498;2022-12-16T04:10:17;19.15;;;9.98;;
52878;SDS011;38747;53.140;6.498;2022-12-16T04:13:03;24.55;;;13.57;;
52878;SDS011;38747;53.140;6.498;2022-12-16T04:15:47;27.98;;;12.75;;
52878;SDS011;38747;53.140;6.498;2022-12-16T04:18:38;22.77;;;11.47;;
52878;SDS011;38747;53.140;6.498;2022-12-16T04:21:23;21.38;;;11.30;;
52878;SDS011;38747;53.140;6.498;2022-12-16T04:24:09;23.02;;;12.07;;
52878;SDS011;38747;53.140;6.498;2022-12-16T04:26:43;27.23;;;14.82;;
52878;SDS011;38747;53.140;6.498;2022-12-16T04:29:27;31.20;;;17.20;;
52878;SDS011;38747;53.140;6.498;2022-12-16T04:31:53;25.70;;;13.83;;
52878;SDS011;38747;53.140;6.498;2022-12-16T04:34:19;28.23;;;15.55;;
52878;SDS011;38747;53.140;6.498;2022-12-16T04:37:01;34.00;;;18.00;;
52878;SDS011;38747;53.140;6.498;2022-12-16T04:39:45;31.90;;;16.40;;
52878;SDS011;38747;53.140;6.498;2022-12-16T04:42:30;31.83;;;16.35;;
52878;SDS011;38747;53.140;6.498;2022-12-16T04:45:14;33.58;;;17.38;;
52878;SDS011;38747;53.140;6.498;2022-12-16T04:47:59;34.28;;;17.67;;
52878;SDS011;38747;53.140;6.498;2022-12-16T04:50:44;36.88;;;18.38;;
52878;SDS011;38747;53.140;6.498;2022-12-16T04:53:28;34.30;;;17.80;;
52878;SDS011;38747;53.140;6.498;2022-12-16T04:56:12;36.33;;;16.80;;
52878;SDS011;38747;53.140;6.498;2022-12-16T04:58:57;29.55;;;13.15;;
52878;SDS011;38747;53.140;6.498;2022-12-16T05:01:58;34.65;;;17.25;;
52878;SDS011;38747;53.140;6.498;2022-12-16T05:04:42;35.75;;;17.15;;
52878;SDS011;38747;53.140;6.498;2022-12-16T05:07:26;37.13;;;17.67;;
52878;SDS011;38747;53.140;6.498;2022-12-16T05:10:10;34.40;;;15.38;;
52878;SDS011;38747;53.140;6.498;2022-12-16T05:12:54;34.30;;;16.48;;
52878;SDS011;38747;53.140;6.498;2022-12-16T05:15:39;34.08;;;16.52;;
52878;SDS011;38747;53.140;6.498;2022-12-16T05:18:22;34.28;;;15.95;;
52878;SDS011;38747;53.140;6.498;2022-12-16T05:21:06;33.93;;;15.03;;
52878;SDS011;38747;53.140;6.498;2022-12-16T05:23:51;32.50;;;15.73;;
52878;SDS011;38747;53.140;6.498;2022-12-16T05:26:34;34.50;;;18.08;;
52878;SDS011;38747;53.140;6.498;2022-12-16T05:29:18;36.33;;;17.70;;
52878;SDS011;38747;53.140;6.498;2022-12-16T05:32:03;39.25;;;17.33;;
52878;SDS011;38747;53.140;6.498;2022-12-16T05:34:47;35.90;;;18.17;;
52878;SDS011;38747;53.140;6.498;2022-12-16T05:37:31;36.58;;;17.58;;
52878;SDS011;38747;53.140;6.498;2022-12-16T05:40:16;35.83;;;17.95;;
52878;SDS011;38747;53.140;6.498;2022-12-16T05:43:00;33.00;;;15.43;;
52878;SDS011;38747;53.140;6.498;2022-12-16T05:45:44;36.25;;;18.05;;
52878;SDS011;38747;53.140;6.498;2022-12-16T05:48:28;36.23;;;17.57;;
52878;SDS011;38747;53.140;6.498;2022-12-16T05:51:12;36.00;;;18.40;;
52878;SDS011;38747;53.140;6.498;2022-12-16T05:53:56;31.38;;;14.75;;
52878;SDS011;38747;53.140;6.498;2022-12-16T05:56:41;38.13;;;18.75;;
52878;SDS011;38747;53.140;6.498;2022-12-16T05:59:25;35.65;;;18.08;;
52878;SDS011;38747;53.140;6.498;2022-12-16T06:02:09;40.97;;;20.20;;
52878;SDS011;38747;53.140;6.498;2022-12-16T06:04:53;41.75;;;20.83;;
52878;SDS011;38747;53.140;6.498;2022-12-16T06:07:37;43.40;;;20.30;;
52878;SDS011;38747;53.140;6.498;2022-12-16T06:10:21;40.45;;;20.20;;
52878;SDS011;38747;53.140;6.498;2022-12-16T06:13:06;36.50;;;19.23;;
52878;SDS011;38747;53.140;6.498;2022-12-16T06:15:50;43.40;;;21.17;;
52878;SDS011;38747;53.140;6.498;2022-12-16T06:18:34;45.00;;;21.30;;
52878;SDS011;38747;53.140;6.498;2022-12-16T06:21:18;43.20;;;21.13;;
52878;SDS011;38747;53.140;6.498;2022-12-16T06:24:03;40.05;;;19.95;;
52878;SDS011;38747;53.140;6.498;2022-12-16T06:26:47;40.40;;;21.08;;
52878;SDS011;38747;53.140;6.498;2022-12-16T06:29:31;40.30;;;21.23;;
52878;SDS011;38747;53.140;6.498;2022-12-16T06:32:15;42.70;;;21.85;;
52878;SDS011;38747;53.140;6.498;2022-12-16T06:35:00;42.88;;;21.95;;
52878;SDS011;38747;53.140;6.498;2022-12-16T06:37:47;43.83;;;21.40;;
52878;SDS011;38747;53.140;6.498;2022-12-16T06:40:31;43.38;;;21.25;;
52878;SDS011;38747;53.140;6.498;2022-12-16T06:43:16;38.47;;;19.60;;
52878;SDS011;38747;53.140;6.498;2022-12-16T06:46:00;47.45;;;22.25;;
52878;SDS011;38747;53.140;6.498;2022-12-16T06:48:44;42.83;;;21.40;;
52878;SDS011;38747;53.140;6.498;2022-12-16T06:51:28;44.72;;;21.58;;
52878;SDS011;38747;53.140;6.498;2022-12-16T06:54:13;44.42;;;22.05;;
52878;SDS011;38747;53.140;6.498;2022-12-16T06:56:57;40.47;;;21.37;;
52878;SDS011;38747;53.140;6.498;2022-12-16T06:59:41;40.58;;;21.08;;
52878;SDS011;38747;53.140;6.498;2022-12-16T07:02:26;46.92;;;22.67;;
52878;SDS011;38747;53.140;6.498;2022-12-16T07:05:10;42.03;;;22.25;;
52878;SDS011;38747;53.140;6.498;2022-12-16T07:07:54;43.25;;;21.30;;
52878;SDS011;38747;53.140;6.498;2022-12-16T07:10:38;42.40;;;20.73;;
52878;SDS011;38747;53.140;6.498;2022-12-16T07:13:23;41.70;;;21.55;;
52878;SDS011;38747;53.140;6.498;2022-12-16T07:16:07;39.95;;;21.52;;
52878;SDS011;38747;53.140;6.498;2022-12-16T07:18:51;44.38;;;23.23;;
52878;SDS011;38747;53.140;6.498;2022-12-16T07:21:35;42.33;;;21.23;;
52878;SDS011;38747;53.140;6.498;2022-12-16T07:24:19;41.93;;;21.37;;
52878;SDS011;38747;53.140;6.498;2022-12-16T07:27:04;46.97;;;22.73;;
52878;SDS011;38747;53.140;6.498;2022-12-16T07:29:48;46.70;;;22.98;;
52878;SDS011;38747;53.140;6.498;2022-12-16T07:32:52;42.20;;;21.77;;
52878;SDS011;38747;53.140;6.498;2022-12-16T07:35:36;41.00;;;21.48;;
52878;SDS011;38747;53.140;6.498;2022-12-16T07:38:31;45.40;;;22.43;;
52878;SDS011;38747;53.140;6.498;2022-12-16T07:41:15;40.67;;;22.45;;
52878;SDS011;38747;53.140;6.498;2022-12-16T07:43:59;45.08;;;22.80;;
52878;SDS011;38747;53.140;6.498;2022-12-16T07:46:43;42.85;;;22.83;;
52878;SDS011;38747;53.140;6.498;2022-12-16T07:49:27;42.33;;;22.13;;
52878;SDS011;38747;53.140;6.498;2022-12-16T07:52:11;44.03;;;21.90;;
52878;SDS011;38747;53.140;6.498;2022-12-16T07:54:55;44.25;;;21.85;;
52878;SDS011;38747;53.140;6.498;2022-12-16T07:57:39;43.45;;;22.05;;
52878;SDS011;38747;53.140;6.498;2022-12-16T08:00:23;45.17;;;22.55;;
52878;SDS011;38747;53.140;6.498;2022-12-16T08:03:07;46.97;;;23.45;;
52878;SDS011;38747;53.140;6.498;2022-12-16T08:05:52;42.80;;;21.77;;
52878;SDS011;38747;53.140;6.498;2022-12-16T08:08:35;44.90;;;23.35;;
52878;SDS011;38747;53.140;6.498;2022-12-16T08:11:20;45.15;;;23.35;;
52878;SDS011;38747;53.140;6.498;2022-12-16T08:14:04;44.17;;;22.30;;
52878;SDS011;38747;53.140;6.498;2022-12-16T08:16:52;46.60;;;23.42;;
52878;SDS011;38747;53.140;6.498;2022-12-16T08:19:36;47.93;;;23.50;;
52878;SDS011;38747;53.140;6.498;2022-12-16T08:22:21;50.10;;;23.67;;
52878;SDS011;38747;53.140;6.498;2022-12-16T08:25:05;44.40;;;23.95;;
52878;SDS011;38747;53.140;6.498;2022-12-16T08:27:53;46.40;;;23.55;;
52878;SDS011;38747;53.140;6.498;2022-12-16T08:30:39;46.17;;;23.27;;
52878;SDS011;38747;53.140;6.498;2022-12-16T08:33:22;45.50;;;22.07;;
52878;SDS011;38747;53.140;6.498;2022-12-16T08:36:07;46.10;;;23.08;;
52878;SDS011;38747;53.140;6.498;2022-12-16T08:38:51;46.40;;;23.75;;
52878;SDS011;38747;53.140;6.498;2022-12-16T08:41:35;46.45;;;21.55;;
52878;SDS011;38747;53.140;6.498;2022-12-16T08:44:19;45.45;;;23.10;;
52878;SDS011;38747;53.140;6.498;2022-12-16T08:47:04;43.17;;;22.83;;
52878;SDS011;38747;53.140;6.498;2022-12-16T08:49:48;46.40;;;22.80;;
52878;SDS011;38747;53.140;6.498;2022-12-16T08:52:33;43.40;;;20.65;;
52878;SDS011;38747;53.140;6.498;2022-12-16T08:55:17;50.67;;;22.52;;
52878;SDS011;38747;53.140;6.498;2022-12-16T08:58:01;47.22;;;22.25;;
52878;SDS011;38747;53.140;6.498;2022-12-16T09:00:45;44.63;;;22.63;;
52878;SDS011;38747;53.140;6.498;2022-12-16T09:03:29;54.05;;;23.08;;
52878;SDS011;38747;53.140;6.498;2022-12-16T09:06:13;54.13;;;23.23;;
52878;SDS011;38747;53.140;6.498;2022-12-16T09:08:58;51.50;;;23.42;;
52878;SDS011;38747;53.140;6.498;2022-12-16T09:11:42;57.70;;;25.58;;
52878;SDS011;38747;53.140;6.498;2022-12-16T09:14:26;57.93;;;24.10;;
52878;SDS011;38747;53.140;6.498;2022-12-16T09:17:10;58.83;;;24.63;;
52878;SDS011;38747;53.140;6.498;2022-12-16T09:19:54;57.95;;;25.10;;
52878;SDS011;38747;53.140;6.498;2022-12-16T09:22:38;54.55;;;23.33;;
52878;SDS011;38747;53.140;6.498;2022-12-16T09:25:22;52.15;;;24.63;;
52878;SDS011;38747;53.140;6.498;2022-12-16T09:28:11;56.47;;;23.23;;
52878;SDS011;38747;53.140;6.498;2022-12-16T09:30:55;57.70;;;24.83;;
52878;SDS011;38747;53.140;6.498;2022-12-16T09:33:42;59.78;;;25.02;;
52878;SDS011;38747;53.140;6.498;2022-12-16T09:36:26;56.83;;;24.23;;
52878;SDS011;38747;53.140;6.498;2022-12-16T09:39:11;58.10;;;22.92;;
52878;SDS011;38747;53.140;6.498;2022-12-16T09:42:19;52.53;;;22.83;;
52878;SDS011;38747;53.140;6.498;2022-12-16T09:45:18;49.78;;;21.02;;
52878;SDS011;38747;53.140;6.498;2022-12-16T09:48:11;47.33;;;21.08;;
52878;SDS011;38747;53.140;6.498;2022-12-16T09:51:13;52.17;;;22.00;;
52878;SDS011;38747;53.140;6.498;2022-12-16T09:53:58;51.67;;;22.63;;
52878;SDS011;38747;53.140;6.498;2022-12-16T09:56:45;55.93;;;24.27;;
52878;SDS011;38747;53.140;6.498;2022-12-16T09:59:35;54.55;;;23.33;;
52878;SDS011;38747;53.140;6.498;2022-12-16T10:02:22;59.28;;;24.13;;
52878;SDS011;38747;53.140;6.498;2022-12-16T10:05:08;50.90;;;22.83;;
52878;SDS011;38747;53.140;6.498;2022-12-16T10:14:23;68.72;;;24.48;;
52878;SDS011;38747;53.140;6.498;2022-12-16T10:17:19;60.38;;;24.02;;
52878;SDS011;38747;53.140;6.498;2022-12-16T10:23:16;65.88;;;24.20;;
52878;SDS011;38747;53.140;6.498;2022-12-16T10:26:16;65.47;;;23.70;;
52878;SDS011;38747;53.140;6.498;2022-12-16T10:29:17;63.85;;;25.05;;
52878;SDS011;38747;53.140;6.498;2022-12-16T10:32:26;68.72;;;24.10;;
52878;SDS011;38747;53.140;6.498;2022-12-16T10:38:04;69.78;;;25.15;;
52878;SDS011;38747;53.140;6.498;2022-12-16T10:40:54;67.47;;;25.67;;
52878;SDS011;38747;53.140;6.498;2022-12-16T10:43:38;72.63;;;25.30;;
52878;SDS011;38747;53.140;6.498;2022-12-16T10:46:28;72.00;;;25.42;;
52878;SDS011;38747;53.140;6.498;2022-12-16T10:49:16;66.13;;;24.77;;
52878;SDS011;38747;53.140;6.498;2022-12-16T10:52:01;63.97;;;24.02;;
52878;SDS011;38747;53.140;6.498;2022-12-16T10:54:54;71.60;;;25.57;;
52878;SDS011;38747;53.140;6.498;2022-12-16T10:57:53;67.38;;;25.42;;
52878;SDS011;38747;53.140;6.498;2022-12-16T11:00:46;77.70;;;24.70;;
52878;SDS011;38747;53.140;6.498;2022-12-16T11:03:33;69.50;;;24.83;;
52878;SDS011;38747;53.140;6.498;2022-12-16T11:06:36;75.75;;;26.13;;
52878;SDS011;38747;53.140;6.498;2022-12-16T11:12:20;75.93;;;25.52;;
52878;SDS011;38747;53.140;6.498;2022-12-16T11:15:19;81.22;;;25.50;;
52878;SDS011;38747;53.140;6.498;2022-12-16T11:18:05;81.45;;;25.90;;
52878;SDS011;38747;53.140;6.498;2022-12-16T11:21:05;80.63;;;26.48;;
52878;SDS011;38747;53.140;6.498;2022-12-16T11:24:27;75.23;;;25.50;;
52878;SDS011;38747;53.140;6.498;2022-12-16T11:27:05;72.95;;;26.00;;
52878;SDS011;38747;53.140;6.498;2022-12-16T11:29:58;80.50;;;25.50;;
52878;SDS011;38747;53.140;6.498;2022-12-16T11:32:45;79.38;;;26.17;;
52878;SDS011;38747;53.140;6.498;2022-12-16T11:35:39;77.15;;;25.90;;
52878;SDS011;38747;53.140;6.498;2022-12-16T11:38:28;81.67;;;25.63;;
52878;SDS011;38747;53.140;6.498;2022-12-16T11:41:24;71.75;;;24.88;;
52878;SDS011;38747;53.140;6.498;2022-12-16T11:44:22;63.92;;;24.35;;
52878;SDS011;38747;53.140;6.498;2022-12-16T11:47:34;72.57;;;23.10;;
52878;SDS011;38747;53.140;6.498;2022-12-16T11:50:47;71.10;;;24.60;;
52878;SDS011;38747;53.140;6.498;2022-12-16T11:53:39;71.87;;;24.97;;
52878;SDS011;38747;53.140;6.498;2022-12-16T11:56:47;71.78;;;26.20;;
52878;SDS011;38747;53.140;6.498;2022-12-16T11:59:34;70.30;;;25.02;;
52878;SDS011;38747;53.140;6.498;2022-12-16T12:02:56;73.80;;;24.77;;
52878;SDS011;38747;53.140;6.498;2022-12-16T12:06:00;77.35;;;24.98;;
52878;SDS011;38747;53.140;6.498;2022-12-16T12:22:08;78.15;;;25.52;;
52878;SDS011;38747;53.140;6.498;2022-12-16T12:34:52;70.15;;;24.95;;
52878;SDS011;38747;53.140;6.498;2022-12-16T12:44:13;65.22;;;25.13;;
52878;SDS011;38747;53.140;6.498;2022-12-16T12:46:56;74.47;;;25.05;;
52878;SDS011;38747;53.140;6.498;2022-12-16T12:49:43;70.30;;;24.80;;
52878;SDS011;38747;53.140;6.498;2022-12-16T12:55:51;70.17;;;23.97;;
52878;SDS011;38747;53.140;6.498;2022-12-16T12:58:45;68.88;;;25.10;;
52878;SDS011;38747;53.140;6.498;2022-12-16T13:01:31;74.97;;;28.20;;
52878;SDS011;38747;53.140;6.498;2022-12-16T13:04:23;64.07;;;24.67;;
52878;SDS011;38747;53.140;6.498;2022-12-16T13:07:10;72.25;;;27.27;;
52878;SDS011;38747;53.140;6.498;2022-12-16T13:15:57;74.50;;;27.15;;
52878;SDS011;38747;53.140;6.498;2022-12-16T13:18:45;73.10;;;25.73;;
52878;SDS011;38747;53.140;6.498;2022-12-16T13:27:12;78.05;;;26.73;;
52878;SDS011;38747;53.140;6.498;2022-12-16T13:33:00;72.25;;;26.65;;
52878;SDS011;38747;53.140;6.498;2022-12-16T13:35:55;67.38;;;26.20;;
52878;SDS011;38747;53.140;6.498;2022-12-16T13:38:47;64.17;;;26.13;;
52878;SDS011;38747;53.140;6.498;2022-12-16T13:53:27;72.10;;;26.00;;
52878;SDS011;38747;53.140;6.498;2022-12-16T13:56:35;72.47;;;25.70;;
52878;SDS011;38747;53.140;6.498;2022-12-16T13:59:23;68.57;;;25.73;;
52878;SDS011;38747;53.140;6.498;2022-12-16T14:02:15;69.05;;;25.40;;
52878;SDS011;38747;53.140;6.498;2022-12-16T14:05:01;70.60;;;26.80;;
52878;SDS011;38747;53.140;6.498;2022-12-16T14:07:46;65.00;;;24.57;;
52878;SDS011;38747;53.140;6.498;2022-12-16T14:10:34;64.07;;;25.35;;
52878;SDS011;38747;53.140;6.498;2022-12-16T14:13:39;65.60;;;25.98;;
52878;SDS011;38747;53.140;6.498;2022-12-16T14:19:22;67.63;;;26.05;;
52878;SDS011;38747;53.140;6.498;2022-12-16T14:22:25;69.77;;;25.60;;
52878;SDS011;38747;53.140;6.498;2022-12-16T14:25:21;65.55;;;25.67;;
52878;SDS011;38747;53.140;6.498;2022-12-16T14:28:21;72.30;;;25.80;;
52878;SDS011;38747;53.140;6.498;2022-12-16T14:31:13;63.45;;;24.83;;
52878;SDS011;38747;53.140;6.498;2022-12-16T14:34:02;67.05;;;26.40;;
52878;SDS011;38747;53.140;6.498;2022-12-16T14:37:10;69.80;;;26.00;;
52878;SDS011;38747;53.140;6.498;2022-12-16T14:39:58;72.20;;;25.27;;
52878;SDS011;38747;53.140;6.498;2022-12-16T14:42:42;69.45;;;25.95;;
52878;SDS011;38747;53.140;6.498;2022-12-16T14:45:36;64.10;;;26.75;;
52878;SDS011;38747;53.140;6.498;2022-12-16T14:48:23;70.78;;;25.67;;
52878;SDS011;38747;53.140;6.498;2022-12-16T14:51:27;68.07;;;26.67;;
52878;SDS011;38747;53.140;6.498;2022-12-16T14:54:16;67.50;;;26.50;;
52878;SDS011;38747;53.140;6.498;2022-12-16T14:57:02;62.47;;;26.60;;
52878;SDS011;38747;53.140;6.498;2022-12-16T14:59:47;63.30;;;24.80;;
52878;SDS011;38747;53.140;6.498;2022-12-16T15:02:44;63.95;;;25.23;;
52878;SDS011;38747;53.140;6.498;2022-12-16T15:05:33;62.40;;;25.50;;
52878;SDS011;38747;53.140;6.498;2022-12-16T15:08:20;67.03;;;26.73;;
52878;SDS011;38747;53.140;6.498;2022-12-16T15:11:06;60.40;;;25.02;;
52878;SDS011;38747;53.140;6.498;2022-12-16T15:13:56;68.65;;;25.77;;
52878;SDS011;38747;53.140;6.498;2022-12-16T15:16:42;67.10;;;25.95;;
52878;SDS011;38747;53.140;6.498;2022-12-16T15:19:28;67.70;;;23.67;;
52878;SDS011;38747;53.140;6.498;2022-12-16T15:22:19;58.83;;;24.25;;
52878;SDS011;38747;53.140;6.498;2022-12-16T15:25:04;62.58;;;25.95;;
52878;SDS011;38747;53.140;6.498;2022-12-16T15:27:52;66.63;;;24.77;;
52878;SDS011;38747;53.140;6.498;2022-12-16T15:30:41;64.47;;;25.05;;
52878;SDS011;38747;53.140;6.498;2022-12-16T15:33:27;67.17;;;26.17;;
52878;SDS011;38747;53.140;6.498;2022-12-16T15:36:25;70.72;;;25.88;;
52878;SDS011;38747;53.140;6.498;2022-12-16T15:39:21;63.30;;;26.05;;
52878;SDS011;38747;53.140;6.498;2022-12-16T15:45:17;70.63;;;26.45;;
52878;SDS011;38747;53.140;6.498;2022-12-16T15:48:19;63.67;;;24.13;;
52878;SDS011;38747;53.140;6.498;2022-12-16T15:51:18;63.20;;;24.42;;
52878;SDS011;38747;53.140;6.498;2022-12-16T15:54:13;69.00;;;25.55;;
52878;SDS011;38747;53.140;6.498;2022-12-16T15:57:23;61.17;;;23.90;;
52878;SDS011;38747;53.140;6.498;2022-12-16T16:00:33;60.53;;;23.27;;
52878;SDS011;38747;53.140;6.498;2022-12-16T16:06:16;63.13;;;24.80;;
52878;SDS011;38747;53.140;6.498;2022-12-16T16:09:10;61.72;;;24.35;;
52878;SDS011;38747;53.140;6.498;2022-12-16T16:12:13;58.05;;;23.20;;
52878;SDS011;38747;53.140;6.498;2022-12-16T16:14:58;64.90;;;24.98;;
52878;SDS011;38747;53.140;6.498;2022-12-16T16:17:43;57.83;;;23.33;;
52878;SDS011;38747;53.140;6.498;2022-12-16T16:20:28;56.33;;;23.73;;
52878;SDS011;38747;53.140;6.498;2022-12-16T16:23:12;53.80;;;22.02;;
52878;SDS011;38747;53.140;6.498;2022-12-16T16:25:57;52.50;;;23.00;;
52878;SDS011;38747;53.140;6.498;2022-12-16T16:28:41;59.25;;;24.90;;
52878;SDS011;38747;53.140;6.498;2022-12-16T16:31:26;53.70;;;23.07;;
52878;SDS011;38747;53.140;6.498;2022-12-16T16:34:11;59.03;;;24.27;;
52878;SDS011;38747;53.140;6.498;2022-12-16T16:36:55;58.65;;;24.45;;
52878;SDS011;38747;53.140;6.498;2022-12-16T16:39:41;55.90;;;22.95;;
52878;SDS011;38747;53.140;6.498;2022-12-16T16:42:25;56.22;;;23.20;;
52878;SDS011;38747;53.140;6.498;2022-12-16T16:45:09;65.47;;;24.43;;
52878;SDS011;38747;53.140;6.498;2022-12-16T16:47:56;55.00;;;23.05;;
52878;SDS011;38747;53.140;6.498;2022-12-16T16:50:54;60.55;;;23.85;;
52878;SDS011;38747;53.140;6.498;2022-12-16T16:53:39;57.50;;;23.35;;
52878;SDS011;38747;53.140;6.498;2022-12-16T16:56:23;55.00;;;23.60;;
52878;SDS011;38747;53.140;6.498;2022-12-16T16:59:09;56.17;;;21.97;;
52878;SDS011;38747;53.140;6.498;2022-12-16T17:01:54;57.45;;;22.83;;
52878;SDS011;38747;53.140;6.498;2022-12-16T17:04:39;57.47;;;23.63;;
52878;SDS011;38747;53.140;6.498;2022-12-16T17:07:23;59.53;;;23.77;;
52878;SDS011;38747;53.140;6.498;2022-12-16T17:10:07;57.67;;;22.88;;
52878;SDS011;38747;53.140;6.498;2022-12-16T17:12:52;55.33;;;22.80;;
52878;SDS011;38747;53.140;6.498;2022-12-16T17:15:36;60.03;;;23.50;;
52878;SDS011;38747;53.140;6.498;2022-12-16T17:18:20;51.95;;;21.70;;
52878;SDS011;38747;53.140;6.498;2022-12-16T17:21:04;52.60;;;22.25;;
52878;SDS011;38747;53.140;6.498;2022-12-16T17:23:48;60.10;;;23.15;;
52878;SDS011;38747;53.140;6.498;2022-12-16T17:26:33;56.03;;;23.27;;
52878;SDS011;38747;53.140;6.498;2022-12-16T17:29:19;54.38;;;21.95;;
52878;SDS011;38747;53.140;6.498;2022-12-16T17:32:05;57.42;;;22.38;;
52878;SDS011;38747;53.140;6.498;2022-12-16T17:34:50;56.10;;;21.83;;
52878;SDS011;38747;53.140;6.498;2022-12-16T17:37:34;58.10;;;21.90;;
52878;SDS011;38747;53.140;6.498;2022-12-16T17:40:18;58.33;;;21.63;;
52878;SDS011;38747;53.140;6.498;2022-12-16T17:43:02;56.58;;;22.40;;
52878;SDS011;38747;53.140;6.498;2022-12-16T17:46:01;61.13;;;22.17;;
52878;SDS011;38747;53.140;6.498;2022-12-16T17:48:54;55.85;;;20.52;;